Time;durP1;ratioP1;P1;durP2;ratioP2;P2;SDS_P1;SDS_P2;PMS_P1;PMS_P2;Temp;Humidity;BMP_temperature;BMP_pressure;BME280_temperature;BME280_humidity;BME280_pressure;Samples;Min_cycle;Max_cycle;Signal;HPM_P1;HPM_P2
2023/09/10 00:01:37;;;;;;;17.10;12.30;;;18.90;99.90;;;;;;4965109;28;20205;-59
2023/09/10 00:04:03;;;;;;;14.70;11.47;;;18.90;99.90;;;;;;4967644;28;20677;-59
2023/09/10 00:06:28;;;;;;;16.80;12.90;;;18.80;99.90;;;;;;4969303;28;20210;-59
2023/09/10 00:08:54;;;;;;;18.63;12.60;;;18.80;99.90;;;;;;4967775;28;20277;-59
2023/09/10 00:11:20;;;;;;;17.17;12.27;;;18.80;99.90;;;;;;4964806;28;20186;-59
2023/09/10 00:13:45;;;;;;;16.10;11.70;;;18.80;99.90;;;;;;4970741;28;20261;-60
2023/09/10 00:16:11;;;;;;;20.27;13.20;;;18.70;99.90;;;;;;4970329;28;20681;-60
2023/09/10 00:18:36;;;;;;;16.70;12.13;;;18.70;99.90;;;;;;4969542;28;20197;-59
2023/09/10 00:21:03;;;;;;;14.80;13.13;;;18.70;99.90;;;;;;4969994;28;20193;-60
2023/09/10 00:23:29;;;;;;;18.30;11.83;;;18.60;99.90;;;;;;4984015;28;20593;-60
2023/09/10 00:25:54;;;;;;;19.83;13.10;;;18.60;99.90;;;;;;4965173;28;20483;-59
2023/09/10 00:28:20;;;;;;;18.83;12.90;;;18.60;99.90;;;;;;4964655;28;20758;-59
2023/09/10 00:30:55;;;;;;;20.90;11.80;;;18.50;99.90;;;;;;4964848;28;20551;-59
2023/09/10 00:33:20;;;;;;;18.70;13.00;;;18.50;99.90;;;;;;4967855;28;20177;-59
2023/09/10 00:35:46;;;;;;;20.57;13.63;;;18.50;99.90;;;;;;4969303;28;20455;-59
2023/09/10 00:38:12;;;;;;;18.47;14.40;;;18.50;99.90;;;;;;4969387;28;20174;-59
2023/09/10 00:40:38;;;;;;;16.90;12.77;;;18.50;99.90;;;;;;4967188;28;20269;-59
2023/09/10 00:43:03;;;;;;;19.27;12.77;;;18.40;99.90;;;;;;4966360;28;20177;-59
2023/09/10 00:45:30;;;;;;;18.87;13.30;;;18.40;99.90;;;;;;4969440;28;20268;-59
2023/09/10 00:47:55;;;;;;;18.73;12.80;;;18.40;99.90;;;;;;4968502;28;20189;-60
2023/09/10 00:50:22;;;;;;;15.73;12.77;;;18.30;99.90;;;;;;4968824;28;20429;-58
2023/09/10 00:52:52;;;;;;;16.50;13.13;;;18.30;99.90;;;;;;4970547;28;20181;-59
2023/09/10 00:55:20;;;;;;;18.00;12.80;;;18.30;99.90;;;;;;4959019;28;20448;-58
2023/09/10 00:57:46;;;;;;;18.97;12.20;;;18.30;99.90;;;;;;4963030;28;20429;-58
2023/09/10 01:00:12;;;;;;;16.57;12.40;;;18.20;99.90;;;;;;4969622;28;20527;-58
2023/09/10 01:02:43;;;;;;;18.47;13.10;;;18.20;99.90;;;;;;4968275;28;20831;-58
2023/09/10 01:05:12;;;;;;;15.53;12.60;;;18.20;99.90;;;;;;4968730;28;20480;-59
2023/09/10 01:07:38;;;;;;;15.00;12.97;;;18.20;99.90;;;;;;4969734;28;20457;-59
2023/09/10 01:10:06;;;;;;;19.40;13.00;;;18.20;99.90;;;;;;4969471;28;20467;-58
2023/09/10 01:13:00;;;;;;;18.03;13.33;;;18.10;99.90;;;;;;4965916;28;20429;-58
2023/09/10 01:15:36;;;;;;;19.23;14.07;;;18.10;99.90;;;;;;4962975;28;20487;-59
2023/09/10 01:18:20;;;;;;;19.80;14.40;;;18.10;99.90;;;;;;4967031;28;20456;-58
2023/09/10 01:21:19;;;;;;;22.13;13.27;;;18.00;99.90;;;;;;4966855;28;20425;-58
2023/09/10 01:23:59;;;;;;;17.70;12.37;;;18.00;99.90;;;;;;4965870;28;20433;-58
2023/09/10 01:26:25;;;;;;;17.53;13.20;;;18.00;99.90;;;;;;4967499;28;20445;-60
2023/09/10 01:28:51;;;;;;;17.13;12.50;;;18.00;99.90;;;;;;4966193;28;20776;-58
2023/09/10 01:31:17;;;;;;;15.13;12.73;;;18.00;99.90;;;;;;4969903;28;20186;-58
2023/09/10 01:33:51;;;;;;;13.60;11.00;;;17.90;99.90;;;;;;4968414;28;20185;-60
2023/09/10 01:36:36;;;;;;;18.53;12.37;;;17.90;99.90;;;;;;4965502;28;20449;-58
2023/09/10 01:39:17;;;;;;;16.93;12.07;;;17.90;99.90;;;;;;4968764;28;20476;-59
2023/09/10 01:41:45;;;;;;;15.30;11.40;;;17.90;99.90;;;;;;4964773;28;20429;-59
2023/09/10 01:44:11;;;;;;;14.80;10.90;;;17.80;99.90;;;;;;4968135;28;20491;-58
2023/09/10 01:46:39;;;;;;;16.97;12.47;;;17.80;99.90;;;;;;4964131;28;20453;-58
2023/09/10 01:49:04;;;;;;;16.70;12.03;;;17.80;99.90;;;;;;4961921;28;20472;-59
2023/09/10 01:51:30;;;;;;;15.10;11.77;;;17.70;99.90;;;;;;4962995;28;20477;-59
2023/09/10 01:53:56;;;;;;;18.97;13.40;;;17.70;99.90;;;;;;4966179;28;20178;-59
2023/09/10 01:56:22;;;;;;;22.00;12.10;;;17.60;99.90;;;;;;4955868;28;20786;-59
2023/09/10 01:58:47;;;;;;;22.00;13.07;;;17.60;99.90;;;;;;4952927;28;20307;-59
2023/09/10 02:01:13;;;;;;;17.40;11.80;;;17.60;99.90;;;;;;4953720;28;20177;-59
2023/09/10 02:03:38;;;;;;;15.90;12.70;;;17.60;99.90;;;;;;4950571;28;20182;-59
2023/09/10 02:06:04;;;;;;;22.30;12.67;;;17.60;99.90;;;;;;4949206;28;20241;-59
2023/09/10 02:08:30;;;;;;;26.43;13.90;;;17.50;99.90;;;;;;4952425;28;20182;-59
2023/09/10 02:10:56;;;;;;;19.07;13.00;;;17.50;99.90;;;;;;4957643;28;20515;-58
2023/09/10 02:13:21;;;;;;;22.93;13.57;;;17.50;99.90;;;;;;4951461;28;22264;-58
2023/09/10 02:15:47;;;;;;;18.93;12.80;;;17.50;99.90;;;;;;4952419;28;20272;-59
2023/09/10 02:18:13;;;;;;;16.20;12.40;;;17.50;99.90;;;;;;4955215;28;20273;-59
2023/09/10 02:20:38;;;;;;;14.70;11.53;;;17.40;99.90;;;;;;4952184;28;20218;-58
2023/09/10 02:23:04;;;;;;;16.67;13.17;;;17.40;99.90;;;;;;4956386;28;22078;-59
2023/09/10 02:25:32;;;;;;;19.10;12.77;;;17.40;99.90;;;;;;4952819;28;20901;-58
2023/09/10 02:27:59;;;;;;;15.40;11.50;;;17.30;99.90;;;;;;4955231;28;20448;-58
2023/09/10 02:30:25;;;;;;;15.13;12.33;;;17.30;99.90;;;;;;4949524;28;20429;-59
2023/09/10 02:32:50;;;;;;;18.83;12.83;;;17.30;99.90;;;;;;4955507;28;20451;-58
2023/09/10 02:35:16;;;;;;;21.37;12.97;;;17.30;99.90;;;;;;4953772;28;20209;-59
2023/09/10 02:37:41;;;;;;;15.80;13.10;;;17.30;99.90;;;;;;4957199;28;20197;-58
2023/09/10 02:40:08;;;;;;;18.10;13.00;;;17.30;99.90;;;;;;4960232;28;20225;-58
2023/09/10 02:42:33;;;;;;;18.40;13.03;;;17.20;99.90;;;;;;4953758;28;20229;-58
2023/09/10 02:44:59;;;;;;;15.73;12.17;;;17.20;99.90;;;;;;4960984;28;20449;-58
2023/09/10 02:47:25;;;;;;;13.90;11.57;;;17.30;99.90;;;;;;4963620;28;20265;-58
2023/09/10 02:49:50;;;;;;;14.50;11.77;;;17.20;99.90;;;;;;4957165;28;20908;-58
2023/09/10 02:52:16;;;;;;;15.33;12.97;;;17.20;99.90;;;;;;4956410;28;20193;-58
2023/09/10 02:54:42;;;;;;;14.60;12.33;;;17.20;99.90;;;;;;4953254;28;20273;-58
2023/09/10 02:57:07;;;;;;;16.63;12.20;;;17.10;99.90;;;;;;4962808;28;20177;-58
2023/09/10 02:59:33;;;;;;;17.07;13.33;;;17.10;99.90;;;;;;4961765;28;20209;-58
2023/09/10 03:01:58;;;;;;;16.40;11.93;;;17.10;99.90;;;;;;4956693;28;20236;-58
2023/09/10 03:04:24;;;;;;;16.50;12.60;;;17.10;99.90;;;;;;4966441;28;21043;-57
2023/09/10 03:06:51;;;;;;;18.27;13.03;;;17.10;99.90;;;;;;4953820;28;20201;-58
2023/09/10 03:09:17;;;;;;;19.67;13.53;;;17.10;99.90;;;;;;4956033;28;20189;-59
2023/09/10 03:11:44;;;;;;;19.90;13.73;;;17.10;99.90;;;;;;4960590;28;20441;-60
2023/09/10 03:14:10;;;;;;;21.30;14.10;;;17.10;99.90;;;;;;4957320;28;20612;-58
2023/09/10 03:16:38;;;;;;;20.10;13.20;;;17.10;99.90;;;;;;4955616;28;20821;-59
2023/09/10 03:19:04;;;;;;;20.77;12.40;;;17.10;99.90;;;;;;4954967;28;20210;-59
2023/09/10 03:21:30;;;;;;;14.20;11.60;;;17.10;99.90;;;;;;4958416;28;20805;-59
2023/09/10 03:23:56;;;;;;;16.00;12.70;;;17.00;99.90;;;;;;4954227;28;20183;-59
2023/09/10 03:26:22;;;;;;;17.73;12.70;;;17.00;99.90;;;;;;4957439;28;20209;-59
2023/09/10 03:28:47;;;;;;;25.77;14.10;;;17.00;99.90;;;;;;4955600;28;20441;-59
2023/09/10 03:31:13;;;;;;;27.90;14.47;;;16.90;99.90;;;;;;4955098;28;20228;-59
2023/09/10 03:33:39;;;;;;;22.50;14.17;;;16.90;99.90;;;;;;4953999;28;20269;-59
2023/09/10 03:36:05;;;;;;;20.07;14.60;;;16.90;99.90;;;;;;4961230;28;20446;-59
2023/09/10 03:38:31;;;;;;;64.77;15.13;;;16.90;99.90;;;;;;4957238;28;20949;-59
2023/09/10 03:40:57;;;;;;;45.93;15.93;;;16.80;99.90;;;;;;4955103;28;20433;-59
2023/09/10 03:43:23;;;;;;;27.53;14.53;;;16.80;99.90;;;;;;4961385;28;20190;-58
2023/09/10 03:45:49;;;;;;;48.67;14.90;;;16.80;99.90;;;;;;4963623;28;20205;-59
2023/09/10 03:48:14;;;;;;;41.73;14.43;;;16.80;99.90;;;;;;4968919;28;20276;-59
2023/09/10 03:50:40;;;;;;;20.40;14.23;;;16.80;99.90;;;;;;4967143;28;20177;-59
2023/09/10 03:53:05;;;;;;;19.57;13.73;;;16.80;99.90;;;;;;4969272;28;20201;-59
2023/09/10 03:55:31;;;;;;;22.57;14.40;;;16.80;99.90;;;;;;4965284;28;20201;-59
2023/09/10 03:57:56;;;;;;;19.87;13.83;;;16.80;99.90;;;;;;4969379;28;20562;-59
2023/09/10 04:00:22;;;;;;;14.93;12.90;;;16.80;99.90;;;;;;4970109;28;20306;-59
2023/09/10 04:02:48;;;;;;;18.87;13.90;;;16.80;99.90;;;;;;4969242;28;20678;-60
2023/09/10 04:05:14;;;;;;;16.97;12.50;;;16.80;99.90;;;;;;4966079;28;20272;-58
2023/09/10 04:07:40;;;;;;;15.10;11.90;;;16.80;99.90;;;;;;4968548;28;20659;-59
2023/09/10 04:10:07;;;;;;;14.27;12.10;;;16.80;99.90;;;;;;4970240;28;20481;-58
2023/09/10 04:12:33;;;;;;;40.60;12.30;;;16.70;99.90;;;;;;4957837;28;20508;-58
2023/09/10 04:14:59;;;;;;;24.97;12.23;;;16.70;99.90;;;;;;4968634;28;20536;-59
2023/09/10 04:17:29;;;;;;;51.50;12.13;;;16.70;99.90;;;;;;4969716;28;20656;-59
2023/09/10 04:19:58;;;;;;;20.70;11.80;;;16.70;99.90;;;;;;4965824;28;20209;-59
2023/09/10 04:22:24;;;;;;;36.20;11.77;;;16.60;99.90;;;;;;4969298;28;20440;-59
2023/09/10 04:24:50;;;;;;;44.57;12.13;;;16.50;99.90;;;;;;4969760;28;20456;-59
2023/09/10 04:27:16;;;;;;;24.63;13.10;;;16.50;99.90;;;;;;4969509;28;20182;-58
2023/09/10 04:29:41;;;;;;;26.40;13.10;;;16.50;99.90;;;;;;4969184;28;20495;-59
2023/09/10 04:32:07;;;;;;;40.73;12.53;;;16.50;99.90;;;;;;4975220;28;20229;-58
2023/09/10 04:34:32;;;;;;;33.30;11.77;;;16.50;99.90;;;;;;4971559;28;20192;-58
2023/09/10 04:36:58;;;;;;;30.00;12.57;;;16.40;99.90;;;;;;4965295;28;20254;-59
2023/09/10 04:39:24;;;;;;;24.97;12.97;;;16.40;99.90;;;;;;4967445;28;20202;-59
2023/09/10 04:41:49;;;;;;;38.73;12.80;;;16.30;99.90;;;;;;4966723;28;20186;-58
2023/09/10 04:44:16;;;;;;;39.43;13.23;;;16.20;99.90;;;;;;4969370;28;20231;-59
2023/09/10 04:46:41;;;;;;;30.73;14.13;;;16.20;99.90;;;;;;4969849;28;20232;-59
2023/09/10 04:49:07;;;;;;;30.60;13.90;;;16.20;99.90;;;;;;4970032;28;21079;-59
2023/09/10 04:51:33;;;;;;;34.67;14.00;;;16.20;99.90;;;;;;4965539;28;20240;-58
2023/09/10 04:53:59;;;;;;;29.73;14.97;;;16.20;99.90;;;;;;4969492;28;20594;-58
2023/09/10 04:56:24;;;;;;;28.07;13.90;;;16.10;99.90;;;;;;4965227;28;20205;-59
2023/09/10 04:58:50;;;;;;;26.20;14.17;;;16.20;99.90;;;;;;4965211;28;20724;-58
2023/09/10 05:01:15;;;;;;;24.03;15.20;;;16.20;99.90;;;;;;4967181;28;20270;-59
2023/09/10 05:03:41;;;;;;;23.60;15.27;;;16.20;99.90;;;;;;4968565;28;20174;-59
2023/09/10 05:06:08;;;;;;;24.97;13.70;;;16.20;99.90;;;;;;4963301;28;20218;-59
2023/09/10 05:08:34;;;;;;;33.33;13.53;;;16.30;99.90;;;;;;4970467;28;20659;-59
2023/09/10 05:10:59;;;;;;;26.67;13.57;;;16.30;99.90;;;;;;4968359;28;20464;-59
2023/09/10 05:13:25;;;;;;;19.70;13.50;;;16.40;99.90;;;;;;4967484;28;20437;-59
2023/09/10 05:15:54;;;;;;;30.80;12.83;;;16.40;99.90;;;;;;4966186;28;20229;-59
2023/09/10 05:18:20;;;;;;;19.90;12.70;;;16.40;99.90;;;;;;4964404;28;20228;-59
2023/09/10 05:20:48;;;;;;;18.90;12.07;;;16.40;99.90;;;;;;4966494;28;20452;-58
2023/09/10 05:23:13;;;;;;;15.20;11.93;;;16.40;99.90;;;;;;4969819;28;20536;-59
2023/09/10 05:25:39;;;;;;;23.20;12.07;;;16.40;99.90;;;;;;4967446;28;20695;-58
2023/09/10 05:28:05;;;;;;;14.17;11.83;;;16.40;99.90;;;;;;4968486;28;20193;-59
2023/09/10 05:30:31;;;;;;;18.30;12.10;;;16.40;99.90;;;;;;4967070;28;20217;-59
2023/09/10 05:32:57;;;;;;;29.47;12.77;;;16.40;99.90;;;;;;4966402;28;20715;-58
2023/09/10 05:35:23;;;;;;;15.73;12.13;;;16.40;99.90;;;;;;4965157;28;20540;-58
2023/09/10 05:37:49;;;;;;;17.07;12.57;;;16.40;99.90;;;;;;4969093;28;20517;-59
2023/09/10 05:40:14;;;;;;;14.73;12.70;;;16.40;99.90;;;;;;4969531;28;20536;-59
2023/09/10 05:42:40;;;;;;;15.30;11.87;;;16.40;99.90;;;;;;4968074;28;20170;-58
2023/09/10 05:45:06;;;;;;;13.03;11.00;;;16.40;99.90;;;;;;4968009;28;20233;-59
2023/09/10 05:47:32;;;;;;;14.67;12.07;;;16.50;99.90;;;;;;4963856;28;20189;-58
2023/09/10 05:49:59;;;;;;;16.00;12.00;;;16.40;99.90;;;;;;4967450;28;20441;-59
2023/09/10 05:52:25;;;;;;;13.93;11.50;;;16.40;99.90;;;;;;4965293;28;20210;-59
2023/09/10 05:54:51;;;;;;;12.10;10.47;;;16.40;99.90;;;;;;4969246;28;20849;-59
2023/09/10 05:57:16;;;;;;;15.00;11.17;;;16.50;99.90;;;;;;4969756;28;20201;-58
2023/09/10 05:59:42;;;;;;;17.43;11.33;;;16.40;99.90;;;;;;4964561;28;20206;-58
2023/09/10 06:02:08;;;;;;;13.00;11.10;;;16.50;99.90;;;;;;4965436;28;20174;-58
2023/09/10 06:04:34;;;;;;;25.83;11.03;;;16.50;99.90;;;;;;4967076;28;20193;-58
2023/09/10 06:07:03;;;;;;;13.60;11.37;;;16.50;99.90;;;;;;4968745;28;20445;-58
2023/09/10 06:09:29;;;;;;;14.47;11.53;;;16.50;99.90;;;;;;4970651;28;20223;-58
2023/09/10 06:11:55;;;;;;;14.00;11.37;;;16.60;99.90;;;;;;4971799;28;20432;-59
2023/09/10 06:14:21;;;;;;;13.73;11.03;;;16.60;99.90;;;;;;4971922;28;20842;-60
2023/09/10 06:16:46;;;;;;;14.40;11.03;;;16.60;99.90;;;;;;4971122;28;20202;-58
2023/09/10 06:19:12;;;;;;;15.47;12.20;;;16.60;99.90;;;;;;4971839;28;20209;-59
2023/09/10 06:21:37;;;;;;;14.63;10.20;;;16.60;99.90;;;;;;4969892;28;20682;-59
2023/09/10 06:24:03;;;;;;;15.90;12.03;;;16.60;99.90;;;;;;4972163;28;20178;-59
2023/09/10 06:26:29;;;;;;;14.43;11.43;;;16.60;99.90;;;;;;4968555;28;20251;-58
2023/09/10 06:28:54;;;;;;;13.93;12.33;;;16.60;99.90;;;;;;4972727;28;20337;-59
2023/09/10 06:31:20;;;;;;;14.60;11.87;;;16.60;99.90;;;;;;4962829;28;20212;-58
2023/09/10 06:33:46;;;;;;;13.90;11.73;;;16.70;99.90;;;;;;4966305;28;20551;-58
2023/09/10 06:36:11;;;;;;;12.60;11.17;;;16.70;99.90;;;;;;4961374;28;20217;-58
2023/09/10 06:38:37;;;;;;;18.47;11.13;;;16.70;99.90;;;;;;4961321;28;20181;-59
2023/09/10 06:41:02;;;;;;;15.00;11.73;;;16.80;99.90;;;;;;4968239;28;20200;-59
2023/09/10 06:43:28;;;;;;;12.57;11.10;;;16.80;99.90;;;;;;4966629;28;20721;-58
2023/09/10 06:45:54;;;;;;;13.17;11.03;;;16.80;99.90;;;;;;4962377;28;20210;-57
2023/09/10 06:48:21;;;;;;;12.70;10.93;;;16.80;99.90;;;;;;4967244;28;20282;-57
2023/09/10 06:50:46;;;;;;;14.47;11.83;;;16.80;99.90;;;;;;4959467;28;20495;-57
2023/09/10 06:53:12;;;;;;;15.47;13.10;;;16.90;99.90;;;;;;4962174;28;20453;-57
2023/09/10 06:55:37;;;;;;;14.07;11.93;;;16.90;99.90;;;;;;4964715;28;20946;-57
2023/09/10 06:58:03;;;;;;;18.07;11.90;;;17.00;99.90;;;;;;4964934;28;20268;-57
2023/09/10 07:00:29;;;;;;;14.60;11.57;;;17.00;99.90;;;;;;4965224;28;20209;-57
2023/09/10 07:02:56;;;;;;;11.30;10.07;;;17.10;99.90;;;;;;4962231;28;20182;-58
2023/09/10 07:05:21;;;;;;;12.60;10.50;;;17.20;99.90;;;;;;4968317;28;20217;-57
2023/09/10 07:07:53;;;;;;;11.37;10.17;;;17.30;99.90;;;;;;4961150;28;20430;-57
2023/09/10 07:10:19;;;;;;;11.00;9.77;;;17.40;99.90;;;;;;4963690;28;20181;-58
2023/09/10 07:12:44;;;;;;;12.10;10.27;;;17.50;99.90;;;;;;4962118;28;20870;-59
2023/09/10 07:15:10;;;;;;;12.40;11.03;;;17.60;99.90;;;;;;4967823;28;20487;-59
2023/09/10 07:17:36;;;;;;;12.63;10.50;;;17.60;99.90;;;;;;4959559;28;20182;-58
2023/09/10 07:20:02;;;;;;;13.80;11.47;;;17.70;99.90;;;;;;4962449;28;20207;-59
2023/09/10 07:22:28;;;;;;;16.20;13.20;;;17.70;99.90;;;;;;4959028;28;20454;-59
2023/09/10 07:24:53;;;;;;;17.17;13.73;;;17.80;99.90;;;;;;4963859;28;20957;-59
2023/09/10 07:27:19;;;;;;;15.90;13.00;;;17.80;99.90;;;;;;4963914;28;20185;-60
2023/09/10 07:29:44;;;;;;;14.93;12.30;;;17.90;99.90;;;;;;4958430;28;20703;-60
2023/09/10 07:32:10;;;;;;;21.83;14.13;;;18.00;99.90;;;;;;4961588;28;20181;-59
2023/09/10 07:34:36;;;;;;;20.23;13.67;;;18.10;99.90;;;;;;4965217;28;20187;-59
2023/09/10 07:37:01;;;;;;;16.37;13.87;;;18.20;99.90;;;;;;4964448;28;20206;-59
2023/09/10 07:39:29;;;;;;;15.67;13.40;;;18.30;99.90;;;;;;4967737;28;20245;-60
2023/09/10 07:41:55;;;;;;;17.70;14.20;;;18.40;99.90;;;;;;4971106;28;20440;-59
2023/09/10 07:44:20;;;;;;;17.63;13.67;;;18.40;99.90;;;;;;4969888;28;20437;-60
2023/09/10 07:46:46;;;;;;;16.90;14.23;;;18.50;99.90;;;;;;4969440;28;20206;-60
2023/09/10 07:49:12;;;;;;;15.10;13.50;;;18.70;99.90;;;;;;4968444;28;20265;-59
2023/09/10 07:51:38;;;;;;;18.60;13.90;;;18.70;99.90;;;;;;4971290;28;20647;-59
2023/09/10 07:54:04;;;;;;;22.47;13.73;;;18.80;99.90;;;;;;4969827;28;20340;-59
2023/09/10 07:56:29;;;;;;;16.80;14.23;;;18.90;99.90;;;;;;4963773;28;21521;-59
2023/09/10 07:58:55;;;;;;;13.63;12.20;;;19.10;99.90;;;;;;4968342;28;20230;-60
2023/09/10 08:01:21;;;;;;;15.23;13.57;;;19.20;99.90;;;;;;4965069;28;20269;-59
2023/09/10 08:03:46;;;;;;;14.47;12.57;;;19.30;99.90;;;;;;4968279;28;20189;-60
2023/09/10 08:06:12;;;;;;;14.37;11.90;;;19.40;99.90;;;;;;4969240;28;20296;-59
2023/09/10 08:08:38;;;;;;;15.73;12.67;;;19.50;99.90;;;;;;4967769;28;20265;-59
2023/09/10 08:11:04;;;;;;;17.53;12.93;;;19.60;99.90;;;;;;4969977;28;20197;-59
2023/09/10 08:13:30;;;;;;;13.80;11.50;;;19.70;99.90;;;;;;4968149;28;20437;-59
2023/09/10 08:15:55;;;;;;;15.37;11.90;;;19.90;99.90;;;;;;4968364;28;20205;-59
2023/09/10 08:18:21;;;;;;;17.10;12.13;;;20.00;99.90;;;;;;4965849;28;20190;-59
2023/09/10 08:20:47;;;;;;;14.77;12.03;;;20.10;99.90;;;;;;4968775;28;20201;-60
2023/09/10 08:23:12;;;;;;;14.23;12.40;;;20.20;99.90;;;;;;4969420;28;20174;-59
2023/09/10 08:25:38;;;;;;;16.20;12.13;;;20.40;99.90;;;;;;4969923;28;20462;-59
2023/09/10 08:28:04;;;;;;;14.10;12.07;;;20.50;99.90;;;;;;4967952;28;20407;-60
2023/09/10 08:30:31;;;;;;;21.93;12.97;;;20.60;99.90;;;;;;4964913;28;20654;-60
2023/09/10 08:32:56;;;;;;;14.70;12.30;;;20.70;99.90;;;;;;4965124;28;20185;-60
2023/09/10 08:35:23;;;;;;;16.27;12.17;;;20.90;99.90;;;;;;4966047;28;20468;-59
2023/09/10 08:37:48;;;;;;;16.97;12.80;;;21.00;99.90;;;;;;4968846;28;20646;-59
2023/09/10 08:40:15;;;;;;;15.77;13.00;;;21.20;99.90;;;;;;4967181;28;20472;-59
2023/09/10 08:43:02;;;;;;;15.80;14.10;;;21.30;99.90;;;;;;4961647;28;20181;-60
2023/09/10 08:45:28;;;;;;;24.90;15.57;;;21.50;99.90;;;;;;4966430;28;20481;-59
2023/09/10 08:47:55;;;;;;;20.50;14.20;;;21.70;99.90;;;;;;4969316;28;20910;-58
2023/09/10 08:50:22;;;;;;;20.30;15.10;;;21.90;99.90;;;;;;4967780;28;20185;-60
2023/09/10 08:52:49;;;;;;;17.67;15.10;;;22.10;99.90;;;;;;4966511;28;20465;-60
2023/09/10 08:55:15;;;;;;;16.77;14.17;;;22.30;99.90;;;;;;4968249;28;20519;-59
2023/09/10 08:57:42;;;;;;;14.67;12.73;;;22.50;99.90;;;;;;4970761;28;20467;-60
2023/09/10 09:00:12;;;;;;;15.20;12.60;;;22.70;99.90;;;;;;4965402;28;20209;-60
2023/09/10 09:02:44;;;;;;;15.60;11.40;;;22.90;99.90;;;;;;4968492;28;20429;-60
2023/09/10 09:05:10;;;;;;;13.73;10.30;;;23.10;99.90;;;;;;4969552;28;20461;-59
2023/09/10 09:07:47;;;;;;;11.90;10.40;;;23.20;99.90;;;;;;4969445;28;20440;-60
2023/09/10 09:10:27;;;;;;;11.23;9.60;;;23.40;99.90;;;;;;4969183;28;20464;-60
2023/09/10 09:12:58;;;;;;;14.53;10.30;;;23.50;99.90;;;;;;4965252;28;20436;-60
2023/09/10 09:15:25;;;;;;;12.00;10.13;;;23.60;99.90;;;;;;4967313;28;20527;-59
2023/09/10 09:17:51;;;;;;;8.10;6.90;;;23.80;99.90;;;;;;4960039;28;21118;-59
2023/09/10 09:20:19;;;;;;;10.37;6.73;;;23.90;93.40;;;;;;4965106;28;20473;-58
2023/09/10 09:22:49;;;;;;;13.20;7.27;;;24.10;90.90;;;;;;4969049;28;20425;-60
2023/09/10 09:25:16;;;;;;;11.67;8.57;;;24.30;88.00;;;;;;4964379;28;20447;-60
2023/09/10 09:27:43;;;;;;;11.70;8.57;;;24.50;87.90;;;;;;4967373;28;20432;-59
2023/09/10 09:30:09;;;;;;;10.63;8.80;;;24.70;85.70;;;;;;4968599;28;20444;-59
2023/09/10 09:32:37;;;;;;;16.07;8.10;;;24.90;87.50;;;;;;4969094;28;20480;-60
2023/09/10 09:35:03;;;;;;;12.53;8.77;;;25.10;84.40;;;;;;4964324;28;20448;-59
2023/09/10 09:37:32;;;;;;;10.30;7.83;;;25.30;78.00;;;;;;4966945;28;20456;-59
2023/09/10 09:40:04;;;;;;;8.67;7.57;;;25.50;74.70;;;;;;4967821;28;21095;-60
2023/09/10 09:42:30;;;;;;;14.90;8.30;;;25.60;72.00;;;;;;4964649;28;20459;-60
2023/09/10 09:44:57;;;;;;;10.83;8.80;;;25.80;68.10;;;;;;4971605;28;20544;-61
2023/09/10 09:47:23;;;;;;;13.63;8.73;;;25.80;68.00;;;;;;4969954;28;20428;-60
2023/09/10 09:49:49;;;;;;;11.20;8.60;;;25.80;67.20;;;;;;4972901;28;20464;-60
2023/09/10 09:52:18;;;;;;;10.10;8.03;;;25.90;66.40;;;;;;4973367;28;20511;-60
2023/09/10 09:54:48;;;;;;;13.83;8.40;;;25.90;67.90;;;;;;4971704;28;20428;-60
2023/09/10 09:57:14;;;;;;;10.37;7.77;;;25.90;66.80;;;;;;4968803;28;20440;-60
2023/09/10 09:59:39;;;;;;;11.90;8.67;;;25.90;65.20;;;;;;4964047;28;21082;-60
2023/09/10 10:02:10;;;;;;;11.43;8.03;;;25.90;67.40;;;;;;4970767;28;20444;-60
2023/09/10 10:04:39;;;;;;;10.13;7.97;;;26.00;65.30;;;;;;4967096;28;20186;-60
2023/09/10 10:07:05;;;;;;;11.80;8.10;;;25.90;63.00;;;;;;4971637;28;20975;-60
2023/09/10 10:09:35;;;;;;;10.73;8.00;;;25.80;64.80;;;;;;4969685;28;20440;-59
2023/09/10 10:12:05;;;;;;;15.57;8.60;;;25.80;64.80;;;;;;4971381;28;20222;-60
2023/09/10 10:14:32;;;;;;;9.83;7.10;;;25.90;61.00;;;;;;4966669;28;20420;-60
2023/09/10 10:17:01;;;;;;;9.97;7.60;;;25.90;60.70;;;;;;4968895;28;20452;-60
2023/09/10 10:19:29;;;;;;;10.00;7.03;;;26.00;58.50;;;;;;4968918;28;20481;-60
2023/09/10 10:21:55;;;;;;;11.37;7.30;;;26.10;58.70;;;;;;4975878;28;20646;-61
2023/09/10 10:24:21;;;;;;;12.77;8.27;;;26.20;57.60;;;;;;4970028;28;20748;-61
2023/09/10 10:26:48;;;;;;;10.03;7.83;;;26.30;57.80;;;;;;4962124;28;20515;-60
2023/09/10 10:29:15;;;;;;;9.97;7.40;;;26.40;57.70;;;;;;4971179;28;20184;-60
2023/09/10 10:31:41;;;;;;;9.80;7.07;;;26.50;58.00;;;;;;4965486;28;20705;-60
2023/09/10 10:34:16;;;;;;;7.70;7.00;;;26.70;58.10;;;;;;4969773;28;20209;-61
2023/09/10 10:36:53;;;;;;;14.27;7.47;;;26.80;57.20;;;;;;4971370;28;20420;-60
2023/09/10 10:39:31;;;;;;;9.30;7.53;;;27.00;57.70;;;;;;4968657;28;20197;-61
2023/09/10 10:42:00;;;;;;;8.83;6.73;;;27.10;58.20;;;;;;4968734;28;20550;-60
2023/09/10 10:44:33;;;;;;;9.57;6.40;;;27.20;56.60;;;;;;4972142;28;20170;-61
2023/09/10 10:47:10;;;;;;;12.13;6.90;;;27.30;57.50;;;;;;4969590;28;20173;-60
2023/09/10 10:49:38;;;;;;;6.73;6.03;;;27.50;57.10;;;;;;4966890;28;20184;-60
2023/09/10 10:52:06;;;;;;;12.83;6.53;;;27.60;55.40;;;;;;4968401;28;20178;-60
2023/09/10 10:54:34;;;;;;;9.00;6.30;;;27.60;52.10;;;;;;4967509;28;20178;-60
2023/09/10 10:57:03;;;;;;;8.53;6.83;;;27.70;50.20;;;;;;4964617;28;20182;-60
2023/09/10 10:59:29;;;;;;;9.13;7.10;;;27.70;50.40;;;;;;4967901;28;20209;-61
2023/09/10 11:02:21;;;;;;;12.10;7.13;;;27.80;50.20;;;;;;4949816;28;20298;-59
2023/09/10 11:04:58;;;;;;;7.40;6.03;;;27.90;52.10;;;;;;4967523;28;20173;-61
2023/09/10 11:07:26;;;;;;;8.45;6.22;;;28.10;52.10;;;;;;4968335;28;20169;-61
2023/09/10 11:09:52;;;;;;;7.82;5.32;;;28.20;49.60;;;;;;4965223;28;20758;-61
2023/09/10 11:12:18;;;;;;;9.00;6.20;;;28.30;49.30;;;;;;4970490;28;20177;-61
2023/09/10 11:14:58;;;;;;;6.97;5.68;;;28.30;50.00;;;;;;4969155;28;20624;-61
2023/09/10 11:17:29;;;;;;;7.63;6.20;;;28.40;49.60;;;;;;4968472;28;20821;-60
2023/09/10 11:19:55;;;;;;;8.43;6.38;;;28.40;49.00;;;;;;4971046;28;20209;-60
2023/09/10 11:22:21;;;;;;;9.48;6.10;;;28.50;50.50;;;;;;4961670;28;20181;-60
2023/09/10 11:25:07;;;;;;;10.40;5.95;;;28.60;49.90;;;;;;4968735;28;20185;-61
2023/09/10 11:27:34;;;;;;;6.30;5.80;;;28.80;49.10;;;;;;4969845;28;20464;-61
2023/09/10 11:30:05;;;;;;;10.35;6.70;;;28.90;50.00;;;;;;4969421;28;20197;-60
2023/09/10 11:32:31;;;;;;;7.88;6.00;;;29.00;48.40;;;;;;4969671;28;20343;-60
2023/09/10 11:35:18;;;;;;;13.15;6.22;;;29.10;47.90;;;;;;4969629;28;20756;-60
2023/09/10 11:37:51;;;;;;;9.13;5.97;;;29.10;48.30;;;;;;4970179;28;20213;-60
2023/09/10 11:40:18;;;;;;;10.88;6.32;;;29.20;47.30;;;;;;4964245;28;20189;-58
2023/09/10 11:42:47;;;;;;;9.68;5.90;;;29.30;49.40;;;;;;4968491;28;20178;-59
2023/09/10 11:45:14;;;;;;;14.90;6.78;;;29.50;49.00;;;;;;4965486;28;20208;-59
2023/09/10 11:47:43;;;;;;;5.50;5.00;;;29.70;47.80;;;;;;4970585;28;20171;-60
2023/09/10 11:50:11;;;;;;;7.07;5.13;;;29.70;46.30;;;;;;4970426;28;20188;-58
2023/09/10 11:52:37;;;;;;;7.78;4.82;;;29.80;46.10;;;;;;4966886;28;20178;-59
2023/09/10 11:55:10;;;;;;;21.10;14.55;;;29.90;45.50;;;;;;4963133;28;20197;-59
2023/09/10 11:57:37;;;;;;;6.78;5.57;;;30.00;44.30;;;;;;4967102;28;20177;-60
2023/09/10 12:00:03;;;;;;;10.35;7.63;;;30.10;43.70;;;;;;4970192;28;20229;-59
2023/09/10 12:02:30;;;;;;;9.15;4.95;;;30.20;44.10;;;;;;4969272;28;20177;-60
2023/09/10 12:04:59;;;;;;;8.68;5.57;;;30.10;43.80;;;;;;4970204;28;20527;-60
2023/09/10 12:07:25;;;;;;;6.10;5.10;;;30.20;43.60;;;;;;4968947;28;20184;-59
2023/09/10 12:09:51;;;;;;;7.57;5.90;;;30.30;42.80;;;;;;4966368;28;20176;-60
2023/09/10 12:12:23;;;;;;;9.05;6.10;;;30.40;43.50;;;;;;4969566;28;20226;-60
2023/09/10 12:14:49;;;;;;;10.32;5.30;;;30.50;42.80;;;;;;4970172;28;20179;-59
2023/09/10 12:17:17;;;;;;;5.60;5.10;;;30.70;42.90;;;;;;4968363;28;21152;-60
2023/09/10 12:19:43;;;;;;;8.75;5.00;;;30.80;42.50;;;;;;4967190;28;20652;-60
2023/09/10 12:22:10;;;;;;;6.20;5.60;;;30.90;41.20;;;;;;4967030;28;20187;-59
2023/09/10 12:24:37;;;;;;;11.02;5.78;;;30.90;41.90;;;;;;4969813;28;20180;-59
2023/09/10 12:27:04;;;;;;;9.30;5.80;;;31.10;42.90;;;;;;4968009;28;20170;-60
2023/09/10 12:29:30;;;;;;;7.32;5.05;;;31.20;41.70;;;;;;4969850;28;20188;-59
2023/09/10 12:31:56;;;;;;;6.53;5.03;;;31.20;40.80;;;;;;4970173;28;20182;-59